sensor_id;sensor_type;location;lat;lon;timestamp;temperature;humidity
75819;DHT22;64453;51.944;9.796;2023-04-23T00:00:16;22.20;49.00
75819;DHT22;64453;51.944;9.796;2023-04-23T00:02:46;22.10;49.10
75819;DHT22;64453;51.944;9.796;2023-04-23T00:05:14;22.00;48.80
75819;DHT22;64453;51.944;9.796;2023-04-23T00:07:42;22.30;49.10
75819;DHT22;64453;51.944;9.796;2023-04-23T00:10:10;21.80;49.60
75819;DHT22;64453;51.944;9.796;2023-04-23T00:12:38;22.10;49.60
75819;DHT22;64453;51.944;9.796;2023-04-23T00:15:07;22.30;50.30
75819;DHT22;64453;51.944;9.796;2023-04-23T00:17:34;22.30;50.50
75819;DHT22;64453;51.944;9.796;2023-04-23T00:20:03;22.30;49.90
75819;DHT22;64453;51.944;9.796;2023-04-23T00:22:31;22.30;49.40
75819;DHT22;64453;51.944;9.796;2023-04-23T00:24:58;22.30;49.00
75819;DHT22;64453;51.944;9.796;2023-04-23T00:27:25;22.40;49.50
75819;DHT22;64453;51.944;9.796;2023-04-23T00:29:52;22.40;49.40
75819;DHT22;64453;51.944;9.796;2023-04-23T00:32:19;22.20;49.10
75819;DHT22;64453;51.944;9.796;2023-04-23T00:34:47;22.20;49.50
75819;DHT22;64453;51.944;9.796;2023-04-23T00:37:15;22.30;49.40
75819;DHT22;64453;51.944;9.796;2023-04-23T00:39:43;22.20;48.80
75819;DHT22;64453;51.944;9.796;2023-04-23T00:42:10;22.00;49.10
75819;DHT22;64453;51.944;9.796;2023-04-23T00:44:37;22.20;49.40
75819;DHT22;64453;51.944;9.796;2023-04-23T00:47:04;22.20;49.90
75819;DHT22;64453;51.944;9.796;2023-04-23T00:49:32;22.30;50.20
75819;DHT22;64453;51.944;9.796;2023-04-23T00:51:59;22.20;49.00
75819;DHT22;64453;51.944;9.796;2023-04-23T00:54:27;22.20;49.40
75819;DHT22;64453;51.944;9.796;2023-04-23T00:56:54;22.20;50.00
75819;DHT22;64453;51.944;9.796;2023-04-23T00:59:23;22.10;49.90
75819;DHT22;64453;51.944;9.796;2023-04-23T01:01:51;22.20;50.00
75819;DHT22;64453;51.944;9.796;2023-04-23T01:04:19;22.20;49.90
75819;DHT22;64453;51.944;9.796;2023-04-23T01:06:47;22.20;49.80
75819;DHT22;64453;51.944;9.796;2023-04-23T01:09:14;22.20;49.80
75819;DHT22;64453;51.944;9.796;2023-04-23T01:11:44;22.20;50.10
75819;DHT22;64453;51.944;9.796;2023-04-23T01:14:12;22.10;49.80
75819;DHT22;64453;51.944;9.796;2023-04-23T01:16:39;21.90;50.50
75819;DHT22;64453;51.944;9.796;2023-04-23T01:19:08;21.80;50.00
75819;DHT22;64453;51.944;9.796;2023-04-23T01:21:36;21.50;49.90
75819;DHT22;64453;51.944;9.796;2023-04-23T01:24:09;21.60;51.20
75819;DHT22;64453;51.944;9.796;2023-04-23T01:26:37;21.60;51.10
75819;DHT22;64453;51.944;9.796;2023-04-23T01:29:04;21.70;50.80
75819;DHT22;64453;51.944;9.796;2023-04-23T01:31:31;21.80;50.50
75819;DHT22;64453;51.944;9.796;2023-04-23T01:33:59;21.20;50.70
75819;DHT22;64453;51.944;9.796;2023-04-23T01:36:26;20.80;51.60
75819;DHT22;64453;51.944;9.796;2023-04-23T01:38:53;20.90;51.00
75819;DHT22;64453;51.944;9.796;2023-04-23T01:41:21;21.00;49.60
75819;DHT22;64453;51.944;9.796;2023-04-23T01:43:48;20.50;50.50
75819;DHT22;64453;51.944;9.796;2023-04-23T01:46:15;20.60;50.70
75819;DHT22;64453;51.944;9.796;2023-04-23T01:48:42;20.70;51.30
75819;DHT22;64453;51.944;9.796;2023-04-23T01:51:09;20.00;51.20
75819;DHT22;64453;51.944;9.796;2023-04-23T01:53:36;20.10;51.30
75819;DHT22;64453;51.944;9.796;2023-04-23T01:56:04;20.30;51.40
75819;DHT22;64453;51.944;9.796;2023-04-23T01:58:33;20.30;50.30
75819;DHT22;64453;51.944;9.796;2023-04-23T02:00:59;19.80;50.30
75819;DHT22;64453;51.944;9.796;2023-04-23T02:03:27;19.70;51.30
75819;DHT22;64453;51.944;9.796;2023-04-23T02:05:55;19.80;51.60
75819;DHT22;64453;51.944;9.796;2023-04-23T02:08:22;19.10;52.20
75819;DHT22;64453;51.944;9.796;2023-04-23T02:10:49;19.30;53.00
75819;DHT22;64453;51.944;9.796;2023-04-23T02:13:16;18.60;53.60
75819;DHT22;64453;51.944;9.796;2023-04-23T02:15:44;19.00;53.30
75819;DHT22;64453;51.944;9.796;2023-04-23T02:18:11;18.50;53.70
75819;DHT22;64453;51.944;9.796;2023-04-23T02:20:38;19.40;53.40
75819;DHT22;64453;51.944;9.796;2023-04-23T02:23:05;19.80;52.90
75819;DHT22;64453;51.944;9.796;2023-04-23T02:25:32;19.60;52.10
75819;DHT22;64453;51.944;9.796;2023-04-23T02:27:59;19.30;53.20
75819;DHT22;64453;51.944;9.796;2023-04-23T02:30:30;19.30;53.70
75819;DHT22;64453;51.944;9.796;2023-04-23T02:32:58;18.60;54.40
75819;DHT22;64453;51.944;9.796;2023-04-23T02:35:25;19.00;54.10
75819;DHT22;64453;51.944;9.796;2023-04-23T02:37:53;19.60;53.60
75819;DHT22;64453;51.944;9.796;2023-04-23T02:40:20;19.40;53.30
75819;DHT22;64453;51.944;9.796;2023-04-23T02:42:48;19.40;53.30
75819;DHT22;64453;51.944;9.796;2023-04-23T02:45:15;19.30;53.70
75819;DHT22;64453;51.944;9.796;2023-04-23T02:47:42;19.90;53.10
75819;DHT22;64453;51.944;9.796;2023-04-23T02:50:10;20.30;52.80
75819;DHT22;64453;51.944;9.796;2023-04-23T02:52:37;20.30;53.80
75819;DHT22;64453;51.944;9.796;2023-04-23T02:55:05;20.10;53.20
75819;DHT22;64453;51.944;9.796;2023-04-23T02:57:33;20.00;54.10
75819;DHT22;64453;51.944;9.796;2023-04-23T03:00:00;19.80;54.80
75819;DHT22;64453;51.944;9.796;2023-04-23T03:02:30;19.60;54.60
75819;DHT22;64453;51.944;9.796;2023-04-23T03:04:57;20.00;54.50
75819;DHT22;64453;51.944;9.796;2023-04-23T03:07:25;19.80;54.20
75819;DHT22;64453;51.944;9.796;2023-04-23T03:09:52;19.80;53.70
75819;DHT22;64453;51.944;9.796;2023-04-23T03:12:19;19.90;53.00
75819;DHT22;64453;51.944;9.796;2023-04-23T03:14:45;19.90;54.40
75819;DHT22;64453;51.944;9.796;2023-04-23T03:17:12;20.10;53.70
75819;DHT22;64453;51.944;9.796;2023-04-23T03:19:39;20.00;53.30
75819;DHT22;64453;51.944;9.796;2023-04-23T03:22:06;19.90;52.70
75819;DHT22;64453;51.944;9.796;2023-04-23T03:24:34;20.20;52.90
75819;DHT22;64453;51.944;9.796;2023-04-23T03:27:01;20.00;52.80
75819;DHT22;64453;51.944;9.796;2023-04-23T03:29:28;20.20;53.20
75819;DHT22;64453;51.944;9.796;2023-04-23T03:31:55;20.10;53.30
75819;DHT22;64453;51.944;9.796;2023-04-23T03:34:22;20.00;53.70
75819;DHT22;64453;51.944;9.796;2023-04-23T03:36:48;20.30;54.00
75819;DHT22;64453;51.944;9.796;2023-04-23T03:39:15;20.00;53.30
75819;DHT22;64453;51.944;9.796;2023-04-23T03:41:44;20.20;52.80
75819;DHT22;64453;51.944;9.796;2023-04-23T03:44:11;20.10;53.40
75819;DHT22;64453;51.944;9.796;2023-04-23T03:46:37;20.30;53.20
75819;DHT22;64453;51.944;9.796;2023-04-23T03:49:04;20.40;53.90
75819;DHT22;64453;51.944;9.796;2023-04-23T03:51:31;20.50;54.20
75819;DHT22;64453;51.944;9.796;2023-04-23T03:53:58;20.60;54.10
75819;DHT22;64453;51.944;9.796;2023-04-23T03:56:26;20.50;54.20
75819;DHT22;64453;51.944;9.796;2023-04-23T03:58:54;20.10;54.30
75819;DHT22;64453;51.944;9.796;2023-04-23T04:01:20;20.10;54.40
75819;DHT22;64453;51.944;9.796;2023-04-23T04:03:47;20.00;54.90
75819;DHT22;64453;51.944;9.796;2023-04-23T04:06:15;19.90;54.30
75819;DHT22;64453;51.944;9.796;2023-04-23T04:08:41;19.70;54.10
75819;DHT22;64453;51.944;9.796;2023-04-23T04:11:08;19.60;55.40
75819;DHT22;64453;51.944;9.796;2023-04-23T04:13:35;19.70;55.70
75819;DHT22;64453;51.944;9.796;2023-04-23T04:16:04;19.40;55.00
75819;DHT22;64453;51.944;9.796;2023-04-23T04:18:31;19.50;55.30
75819;DHT22;64453;51.944;9.796;2023-04-23T04:20:58;19.00;55.10
75819;DHT22;64453;51.944;9.796;2023-04-23T04:23:25;18.80;56.50
75819;DHT22;64453;51.944;9.796;2023-04-23T04:25:53;19.20;56.10
75819;DHT22;64453;51.944;9.796;2023-04-23T04:28:21;18.90;55.90
75819;DHT22;64453;51.944;9.796;2023-04-23T04:30:49;19.30;55.50
75819;DHT22;64453;51.944;9.796;2023-04-23T04:33:18;19.40;55.30
75819;DHT22;64453;51.944;9.796;2023-04-23T04:35:45;18.60;54.30
75819;DHT22;64453;51.944;9.796;2023-04-23T04:38:13;17.10;53.90
75819;DHT22;64453;51.944;9.796;2023-04-23T04:40:40;18.20;56.00
75819;DHT22;64453;51.944;9.796;2023-04-23T04:43:07;17.80;55.40
75819;DHT22;64453;51.944;9.796;2023-04-23T04:45:34;16.60;56.20
75819;DHT22;64453;51.944;9.796;2023-04-23T04:48:01;17.10;56.30
75819;DHT22;64453;51.944;9.796;2023-04-23T04:50:29;17.00;55.60
75819;DHT22;64453;51.944;9.796;2023-04-23T04:52:56;17.10;56.20
75819;DHT22;64453;51.944;9.796;2023-04-23T04:55:23;17.30;55.80
75819;DHT22;64453;51.944;9.796;2023-04-23T04:57:52;17.40;54.80
75819;DHT22;64453;51.944;9.796;2023-04-23T05:00:21;17.20;54.20
75819;DHT22;64453;51.944;9.796;2023-04-23T05:02:50;17.50;54.90
75819;DHT22;64453;51.944;9.796;2023-04-23T05:05:18;17.40;54.70
75819;DHT22;64453;51.944;9.796;2023-04-23T05:07:46;16.60;54.40
75819;DHT22;64453;51.944;9.796;2023-04-23T05:10:14;17.20;55.20
75819;DHT22;64453;51.944;9.796;2023-04-23T05:12:41;16.60;55.00
75819;DHT22;64453;51.944;9.796;2023-04-23T05:15:10;17.20;55.50
75819;DHT22;64453;51.944;9.796;2023-04-23T05:17:38;17.10;56.50
75819;DHT22;64453;51.944;9.796;2023-04-23T05:20:06;17.60;54.10
75819;DHT22;64453;51.944;9.796;2023-04-23T05:22:36;18.20;54.10
75819;DHT22;64453;51.944;9.796;2023-04-23T05:25:05;17.60;54.00
75819;DHT22;64453;51.944;9.796;2023-04-23T05:27:33;17.60;53.30
75819;DHT22;64453;51.944;9.796;2023-04-23T05:30:01;17.20;54.10
75819;DHT22;64453;51.944;9.796;2023-04-23T05:32:28;17.70;52.70
75819;DHT22;64453;51.944;9.796;2023-04-23T05:34:55;17.30;50.70
75819;DHT22;64453;51.944;9.796;2023-04-23T05:37:24;17.20;52.70
75819;DHT22;64453;51.944;9.796;2023-04-23T05:39:51;17.60;52.50
75819;DHT22;64453;51.944;9.796;2023-04-23T05:42:19;17.00;52.70
75819;DHT22;64453;51.944;9.796;2023-04-23T05:44:46;17.60;51.50
75819;DHT22;64453;51.944;9.796;2023-04-23T05:47:13;17.50;51.50
75819;DHT22;64453;51.944;9.796;2023-04-23T05:49:40;15.80;50.80
75819;DHT22;64453;51.944;9.796;2023-04-23T05:52:07;16.50;53.80
75819;DHT22;64453;51.944;9.796;2023-04-23T05:54:34;16.50;54.20
75819;DHT22;64453;51.944;9.796;2023-04-23T05:57:01;17.20;52.90
75819;DHT22;64453;51.944;9.796;2023-04-23T05:59:29;17.60;51.70
75819;DHT22;64453;51.944;9.796;2023-04-23T06:01:56;17.10;52.20
75819;DHT22;64453;51.944;9.796;2023-04-23T06:04:23;16.10;54.00
75819;DHT22;64453;51.944;9.796;2023-04-23T06:06:51;17.30;53.90
75819;DHT22;64453;51.944;9.796;2023-04-23T06:09:18;17.20;52.10
75819;DHT22;64453;51.944;9.796;2023-04-23T06:11:45;17.40;52.60
75819;DHT22;64453;51.944;9.796;2023-04-23T06:14:12;17.60;51.70
75819;DHT22;64453;51.944;9.796;2023-04-23T06:16:40;17.00;51.70
75819;DHT22;64453;51.944;9.796;2023-04-23T06:19:07;17.40;52.60
75819;DHT22;64453;51.944;9.796;2023-04-23T06:21:34;17.60;53.40
75819;DHT22;64453;51.944;9.796;2023-04-23T06:24:01;17.30;52.90
75819;DHT22;64453;51.944;9.796;2023-04-23T06:26:28;18.10;52.60
75819;DHT22;64453;51.944;9.796;2023-04-23T06:28:55;18.50;51.50
75819;DHT22;64453;51.944;9.796;2023-04-23T06:31:22;19.00;51.10
75819;DHT22;64453;51.944;9.796;2023-04-23T06:33:50;18.90;50.50
75819;DHT22;64453;51.944;9.796;2023-04-23T06:36:17;19.20;51.30
75819;DHT22;64453;51.944;9.796;2023-04-23T06:38:44;19.30;50.10
75819;DHT22;64453;51.944;9.796;2023-04-23T06:41:11;19.10;49.70
75819;DHT22;64453;51.944;9.796;2023-04-23T06:43:38;19.20;50.20
75819;DHT22;64453;51.944;9.796;2023-04-23T06:46:05;19.20;50.60
75819;DHT22;64453;51.944;9.796;2023-04-23T06:48:32;19.10;49.80
75819;DHT22;64453;51.944;9.796;2023-04-23T06:51:01;18.70;50.00
75819;DHT22;64453;51.944;9.796;2023-04-23T06:53:27;18.90;51.30
75819;DHT22;64453;51.944;9.796;2023-04-23T06:55:54;19.00;51.30
75819;DHT22;64453;51.944;9.796;2023-04-23T06:58:21;19.40;51.70
75819;DHT22;64453;51.944;9.796;2023-04-23T07:00:55;19.40;51.40
75819;DHT22;64453;51.944;9.796;2023-04-23T07:03:24;19.60;51.30
75819;DHT22;64453;51.944;9.796;2023-04-23T07:05:52;19.60;50.70
75819;DHT22;64453;51.944;9.796;2023-04-23T07:08:20;19.00;50.10
75819;DHT22;64453;51.944;9.796;2023-04-23T07:10:47;19.00;51.20
75819;DHT22;64453;51.944;9.796;2023-04-23T07:13:14;19.40;51.10
75819;DHT22;64453;51.944;9.796;2023-04-23T07:15:41;19.60;50.80
75819;DHT22;64453;51.944;9.796;2023-04-23T07:18:08;19.70;50.10
75819;DHT22;64453;51.944;9.796;2023-04-23T07:20:35;20.00;49.80
75819;DHT22;64453;51.944;9.796;2023-04-23T07:23:02;20.00;48.90
75819;DHT22;64453;51.944;9.796;2023-04-23T07:25:30;19.10;48.70
75819;DHT22;64453;51.944;9.796;2023-04-23T07:27:57;18.70;49.20
75819;DHT22;64453;51.944;9.796;2023-04-23T07:30:26;19.30;48.70
75819;DHT22;64453;51.944;9.796;2023-04-23T07:32:53;19.50;47.10
75819;DHT22;64453;51.944;9.796;2023-04-23T07:35:21;19.60;47.40
75819;DHT22;64453;51.944;9.796;2023-04-23T07:37:47;19.50;46.80
75819;DHT22;64453;51.944;9.796;2023-04-23T07:40:19;18.80;47.50
75819;DHT22;64453;51.944;9.796;2023-04-23T07:42:49;19.60;46.90
75819;DHT22;64453;51.944;9.796;2023-04-23T07:45:17;19.40;46.60
75819;DHT22;64453;51.944;9.796;2023-04-23T07:47:44;18.60;46.70
75819;DHT22;64453;51.944;9.796;2023-04-23T07:50:11;18.30;45.20
75819;DHT22;64453;51.944;9.796;2023-04-23T07:52:38;18.10;46.80
75819;DHT22;64453;51.944;9.796;2023-04-23T07:55:06;17.70;46.90
75819;DHT22;64453;51.944;9.796;2023-04-23T07:57:34;18.50;47.90
75819;DHT22;64453;51.944;9.796;2023-04-23T08:00:03;19.10;46.70
75819;DHT22;64453;51.944;9.796;2023-04-23T08:02:33;19.20;46.20
75819;DHT22;64453;51.944;9.796;2023-04-23T08:05:00;19.40;46.40
75819;DHT22;64453;51.944;9.796;2023-04-23T08:07:27;19.70;45.80
75819;DHT22;64453;51.944;9.796;2023-04-23T08:09:55;18.50;44.60
75819;DHT22;64453;51.944;9.796;2023-04-23T08:12:27;18.90;43.90
75819;DHT22;64453;51.944;9.796;2023-04-23T08:14:55;19.40;43.50
75819;DHT22;64453;51.944;9.796;2023-04-23T08:17:24;19.30;43.70
75819;DHT22;64453;51.944;9.796;2023-04-23T08:19:51;19.20;43.30
75819;DHT22;64453;51.944;9.796;2023-04-23T08:22:17;19.10;43.90
75819;DHT22;64453;51.944;9.796;2023-04-23T08:24:44;18.70;44.60
75819;DHT22;64453;51.944;9.796;2023-04-23T08:27:12;19.30;46.20
75819;DHT22;64453;51.944;9.796;2023-04-23T08:29:39;19.30;43.30
75819;DHT22;64453;51.944;9.796;2023-04-23T08:32:06;19.60;43.30
75819;DHT22;64453;51.944;9.796;2023-04-23T08:34:34;20.00;43.00
75819;DHT22;64453;51.944;9.796;2023-04-23T08:37:01;19.80;43.80
75819;DHT22;64453;51.944;9.796;2023-04-23T08:39:28;20.20;42.60
75819;DHT22;64453;51.944;9.796;2023-04-23T08:42:03;19.80;41.40
75819;DHT22;64453;51.944;9.796;2023-04-23T08:44:34;19.70;42.90
75819;DHT22;64453;51.944;9.796;2023-04-23T08:47:03;20.00;42.10
75819;DHT22;64453;51.944;9.796;2023-04-23T08:49:33;20.30;43.90
75819;DHT22;64453;51.944;9.796;2023-04-23T08:52:07;20.50;42.30
75819;DHT22;64453;51.944;9.796;2023-04-23T08:54:40;20.30;41.60
75819;DHT22;64453;51.944;9.796;2023-04-23T08:57:12;20.50;42.40
75819;DHT22;64453;51.944;9.796;2023-04-23T08:59:40;20.40;41.20
75819;DHT22;64453;51.944;9.796;2023-04-23T09:02:07;20.40;41.10
75819;DHT22;64453;51.944;9.796;2023-04-23T09:04:36;19.90;41.60
75819;DHT22;64453;51.944;9.796;2023-04-23T09:07:04;20.00;42.60
75819;DHT22;64453;51.944;9.796;2023-04-23T09:09:32;20.40;43.10
75819;DHT22;64453;51.944;9.796;2023-04-23T09:12:00;20.40;43.00
75819;DHT22;64453;51.944;9.796;2023-04-23T09:14:27;20.00;42.50
75819;DHT22;64453;51.944;9.796;2023-04-23T09:16:54;20.30;42.30
75819;DHT22;64453;51.944;9.796;2023-04-23T09:19:21;20.40;42.30
75819;DHT22;64453;51.944;9.796;2023-04-23T09:21:50;20.60;41.60
75819;DHT22;64453;51.944;9.796;2023-04-23T09:24:20;20.80;43.10
75819;DHT22;64453;51.944;9.796;2023-04-23T09:26:48;20.80;42.30
75819;DHT22;64453;51.944;9.796;2023-04-23T09:29:18;20.80;44.10
75819;DHT22;64453;51.944;9.796;2023-04-23T09:31:46;21.00;44.90
75819;DHT22;64453;51.944;9.796;2023-04-23T09:34:17;21.00;44.90
75819;DHT22;64453;51.944;9.796;2023-04-23T09:36:46;20.90;42.80
75819;DHT22;64453;51.944;9.796;2023-04-23T09:39:18;21.00;43.00
75819;DHT22;64453;51.944;9.796;2023-04-23T09:41:47;21.30;43.70
75819;DHT22;64453;51.944;9.796;2023-04-23T09:44:17;21.20;42.80
75819;DHT22;64453;51.944;9.796;2023-04-23T09:46:44;20.90;41.60
75819;DHT22;64453;51.944;9.796;2023-04-23T09:49:12;21.10;42.10
75819;DHT22;64453;51.944;9.796;2023-04-23T09:51:40;21.40;41.40
75819;DHT22;64453;51.944;9.796;2023-04-23T09:54:12;21.40;40.90
75819;DHT22;64453;51.944;9.796;2023-04-23T09:56:43;21.30;39.80
75819;DHT22;64453;51.944;9.796;2023-04-23T09:59:21;21.40;39.30
75819;DHT22;64453;51.944;9.796;2023-04-23T10:01:51;21.20;39.20
75819;DHT22;64453;51.944;9.796;2023-04-23T10:04:19;21.30;40.30
75819;DHT22;64453;51.944;9.796;2023-04-23T10:06:47;21.10;38.40
75819;DHT22;64453;51.944;9.796;2023-04-23T10:09:20;21.30;39.60
75819;DHT22;64453;51.944;9.796;2023-04-23T10:11:52;21.40;40.80
75819;DHT22;64453;51.944;9.796;2023-04-23T10:14:20;21.80;41.70
75819;DHT22;64453;51.944;9.796;2023-04-23T10:16:51;21.60;39.50
75819;DHT22;64453;51.944;9.796;2023-04-23T10:19:20;21.10;38.50
75819;DHT22;64453;51.944;9.796;2023-04-23T10:21:49;21.50;38.30
75819;DHT22;64453;51.944;9.796;2023-04-23T10:24:22;21.40;38.40
75819;DHT22;64453;51.944;9.796;2023-04-23T10:26:52;21.60;39.10
75819;DHT22;64453;51.944;9.796;2023-04-23T10:29:26;21.50;39.40
75819;DHT22;64453;51.944;9.796;2023-04-23T10:31:57;21.50;39.50
75819;DHT22;64453;51.944;9.796;2023-04-23T10:34:26;21.80;39.40
75819;DHT22;64453;51.944;9.796;2023-04-23T10:36:55;21.70;40.10
75819;DHT22;64453;51.944;9.796;2023-04-23T10:39:27;21.90;40.40
75819;DHT22;64453;51.944;9.796;2023-04-23T10:41:58;21.90;40.00
75819;DHT22;64453;51.944;9.796;2023-04-23T10:44:31;21.90;40.10
75819;DHT22;64453;51.944;9.796;2023-04-23T10:47:02;21.20;40.00
75819;DHT22;64453;51.944;9.796;2023-04-23T10:49:31;21.50;40.10
75819;DHT22;64453;51.944;9.796;2023-04-23T10:52:00;21.30;39.80
75819;DHT22;64453;51.944;9.796;2023-04-23T10:54:29;21.60;39.60
75819;DHT22;64453;51.944;9.796;2023-04-23T10:57:00;21.60;39.00
75819;DHT22;64453;51.944;9.796;2023-04-23T10:59:30;21.60;39.10
75819;DHT22;64453;51.944;9.796;2023-04-23T11:02:05;21.60;39.90
75819;DHT22;64453;51.944;9.796;2023-04-23T11:04:34;21.40;39.80
75819;DHT22;64453;51.944;9.796;2023-04-23T11:07:05;21.70;39.60
75819;DHT22;64453;51.944;9.796;2023-04-23T11:09:38;21.10;38.40
75819;DHT22;64453;51.944;9.796;2023-04-23T11:12:12;21.40;40.00
75819;DHT22;64453;51.944;9.796;2023-04-23T11:14:46;21.70;40.30
75819;DHT22;64453;51.944;9.796;2023-04-23T11:17:15;22.00;39.70
75819;DHT22;64453;51.944;9.796;2023-04-23T11:20:05;22.20;38.90
75819;DHT22;64453;51.944;9.796;2023-04-23T11:22:35;22.20;39.40
75819;DHT22;64453;51.944;9.796;2023-04-23T11:25:03;22.20;39.90
75819;DHT22;64453;51.944;9.796;2023-04-23T11:27:37;22.10;38.70
75819;DHT22;64453;51.944;9.796;2023-04-23T11:30:10;22.10;38.20
75819;DHT22;64453;51.944;9.796;2023-04-23T11:32:39;22.00;38.60
75819;DHT22;64453;51.944;9.796;2023-04-23T11:35:07;21.90;39.50
75819;DHT22;64453;51.944;9.796;2023-04-23T11:37:38;21.70;39.20
75819;DHT22;64453;51.944;9.796;2023-04-23T11:40:06;21.90;42.00
75819;DHT22;64453;51.944;9.796;2023-04-23T11:42:41;21.10;45.00
75819;DHT22;64453;51.944;9.796;2023-04-23T11:45:15;19.80;48.20
75819;DHT22;64453;51.944;9.796;2023-04-23T11:47:43;18.70;51.10
75819;DHT22;64453;51.944;9.796;2023-04-23T11:50:10;18.50;53.70
75819;DHT22;64453;51.944;9.796;2023-04-23T11:52:43;18.90;52.50
75819;DHT22;64453;51.944;9.796;2023-04-23T11:55:10;18.60;52.40
75819;DHT22;64453;51.944;9.796;2023-04-23T11:57:42;18.90;54.60
75819;DHT22;64453;51.944;9.796;2023-04-23T12:00:14;19.70;52.50
75819;DHT22;64453;51.944;9.796;2023-04-23T12:02:50;20.40;53.40
75819;DHT22;64453;51.944;9.796;2023-04-23T12:05:19;20.40;49.20
75819;DHT22;64453;51.944;9.796;2023-04-23T12:07:51;20.10;48.80
75819;DHT22;64453;51.944;9.796;2023-04-23T12:10:19;19.60;49.20
75819;DHT22;64453;51.944;9.796;2023-04-23T12:12:51;19.70;49.80
75819;DHT22;64453;51.944;9.796;2023-04-23T12:15:19;20.40;50.80
75819;DHT22;64453;51.944;9.796;2023-04-23T12:17:49;20.80;50.80
75819;DHT22;64453;51.944;9.796;2023-04-23T12:20:18;21.40;46.00
75819;DHT22;64453;51.944;9.796;2023-04-23T12:22:45;21.40;45.50
75819;DHT22;64453;51.944;9.796;2023-04-23T12:25:13;21.60;48.10
75819;DHT22;64453;51.944;9.796;2023-04-23T12:27:42;21.60;48.10
75819;DHT22;64453;51.944;9.796;2023-04-23T12:30:12;21.90;49.20
75819;DHT22;64453;51.944;9.796;2023-04-23T12:32:40;22.10;47.40
75819;DHT22;64453;51.944;9.796;2023-04-23T12:35:07;22.20;46.60
75819;DHT22;64453;51.944;9.796;2023-04-23T12:37:36;22.20;46.50
75819;DHT22;64453;51.944;9.796;2023-04-23T12:40:03;22.10;48.40
75819;DHT22;64453;51.944;9.796;2023-04-23T12:42:33;22.20;47.50
75819;DHT22;64453;51.944;9.796;2023-04-23T12:45:05;22.30;45.80
75819;DHT22;64453;51.944;9.796;2023-04-23T12:47:35;22.40;46.10
75819;DHT22;64453;51.944;9.796;2023-04-23T12:50:02;22.60;44.80
75819;DHT22;64453;51.944;9.796;2023-04-23T12:52:30;22.70;44.80
75819;DHT22;64453;51.944;9.796;2023-04-23T12:54:57;22.60;44.00
75819;DHT22;64453;51.944;9.796;2023-04-23T12:57:25;22.70;43.90
75819;DHT22;64453;51.944;9.796;2023-04-23T12:59:53;22.70;43.40
75819;DHT22;64453;51.944;9.796;2023-04-23T13:02:23;22.70;43.60
75819;DHT22;64453;51.944;9.796;2023-04-23T13:04:52;22.70;44.30
75819;DHT22;64453;51.944;9.796;2023-04-23T13:07:25;22.70;45.00
75819;DHT22;64453;51.944;9.796;2023-04-23T13:09:52;22.50;43.20
75819;DHT22;64453;51.944;9.796;2023-04-23T13:12:18;22.60;43.50
75819;DHT22;64453;51.944;9.796;2023-04-23T13:14:45;22.20;42.60
75819;DHT22;64453;51.944;9.796;2023-04-23T13:17:12;22.00;42.10
75819;DHT22;64453;51.944;9.796;2023-04-23T13:19:39;21.50;43.20
75819;DHT22;64453;51.944;9.796;2023-04-23T13:22:07;21.50;45.00
75819;DHT22;64453;51.944;9.796;2023-04-23T13:24:34;21.70;44.60
75819;DHT22;64453;51.944;9.796;2023-04-23T13:27:01;21.20;43.80
75819;DHT22;64453;51.944;9.796;2023-04-23T13:29:28;21.10;47.10
75819;DHT22;64453;51.944;9.796;2023-04-23T13:31:56;20.40;47.00
75819;DHT22;64453;51.944;9.796;2023-04-23T13:34:23;20.90;49.00
75819;DHT22;64453;51.944;9.796;2023-04-23T13:36:50;21.10;46.10
75819;DHT22;64453;51.944;9.796;2023-04-23T13:39:19;21.40;46.70
75819;DHT22;64453;51.944;9.796;2023-04-23T13:41:48;21.60;46.40
75819;DHT22;64453;51.944;9.796;2023-04-23T13:44:14;21.50;45.00
75819;DHT22;64453;51.944;9.796;2023-04-23T13:46:42;21.90;45.20
75819;DHT22;64453;51.944;9.796;2023-04-23T13:49:09;21.70;43.70
75819;DHT22;64453;51.944;9.796;2023-04-23T13:51:36;21.30;43.50
75819;DHT22;64453;51.944;9.796;2023-04-23T13:54:03;21.20;44.10
75819;DHT22;64453;51.944;9.796;2023-04-23T13:56:32;21.10;44.90
75819;DHT22;64453;51.944;9.796;2023-04-23T13:59:01;21.50;45.70
75819;DHT22;64453;51.944;9.796;2023-04-23T14:01:28;21.50;45.60
75819;DHT22;64453;51.944;9.796;2023-04-23T14:03:56;21.40;47.60
75819;DHT22;64453;51.944;9.796;2023-04-23T14:06:22;21.50;46.60
75819;DHT22;64453;51.944;9.796;2023-04-23T14:08:49;21.70;46.00
75819;DHT22;64453;51.944;9.796;2023-04-23T14:11:17;22.10;45.40
75819;DHT22;64453;51.944;9.796;2023-04-23T14:13:45;22.30;43.80
75819;DHT22;64453;51.944;9.796;2023-04-23T14:16:12;22.10;43.60
75819;DHT22;64453;51.944;9.796;2023-04-23T14:18:39;21.60;43.10
75819;DHT22;64453;51.944;9.796;2023-04-23T14:21:06;21.50;44.60
75819;DHT22;64453;51.944;9.796;2023-04-23T14:23:44;21.80;44.90
75819;DHT22;64453;51.944;9.796;2023-04-23T14:26:26;22.10;45.20
75819;DHT22;64453;51.944;9.796;2023-04-23T14:29:01;22.20;45.20
75819;DHT22;64453;51.944;9.796;2023-04-23T14:31:29;22.30;44.90
75819;DHT22;64453;51.944;9.796;2023-04-23T14:33:56;22.40;44.80
75819;DHT22;64453;51.944;9.796;2023-04-23T14:36:24;21.90;43.20
75819;DHT22;64453;51.944;9.796;2023-04-23T14:38:51;22.00;43.80
75819;DHT22;64453;51.944;9.796;2023-04-23T14:41:18;22.10;43.20
75819;DHT22;64453;51.944;9.796;2023-04-23T14:43:44;22.30;43.90
75819;DHT22;64453;51.944;9.796;2023-04-23T14:46:13;22.10;43.10
75819;DHT22;64453;51.944;9.796;2023-04-23T14:48:40;22.30;42.90
75819;DHT22;64453;51.944;9.796;2023-04-23T14:51:07;22.60;43.00
75819;DHT22;64453;51.944;9.796;2023-04-23T14:53:33;22.80;43.60
75819;DHT22;64453;51.944;9.796;2023-04-23T14:56:00;22.90;43.70
75819;DHT22;64453;51.944;9.796;2023-04-23T14:58:28;22.90;44.50
75819;DHT22;64453;51.944;9.796;2023-04-23T15:00:55;22.90;45.30
75819;DHT22;64453;51.944;9.796;2023-04-23T15:03:23;23.00;44.00
75819;DHT22;64453;51.944;9.796;2023-04-23T15:05:51;23.20;44.10
75819;DHT22;64453;51.944;9.796;2023-04-23T15:08:18;23.30;43.00
75819;DHT22;64453;51.944;9.796;2023-04-23T15:10:45;23.50;42.90
75819;DHT22;64453;51.944;9.796;2023-04-23T15:13:30;23.70;42.70
75819;DHT22;64453;51.944;9.796;2023-04-23T15:16:07;23.80;41.80
75819;DHT22;64453;51.944;9.796;2023-04-23T15:18:36;23.90;41.90
75819;DHT22;64453;51.944;9.796;2023-04-23T15:21:03;24.10;42.20
75819;DHT22;64453;51.944;9.796;2023-04-23T15:23:30;24.00;41.90
75819;DHT22;64453;51.944;9.796;2023-04-23T15:25:57;24.30;42.20
75819;DHT22;64453;51.944;9.796;2023-04-23T15:28:24;24.50;41.20
75819;DHT22;64453;51.944;9.796;2023-04-23T15:30:51;25.00;39.60
75819;DHT22;64453;51.944;9.796;2023-04-23T15:33:18;25.10;38.40
75819;DHT22;64453;51.944;9.796;2023-04-23T15:35:47;25.10;37.40